sensor_id;sensor_type;location;lat;lon;timestamp;temperature;humidity
75517;DHT22;64097;52.548;13.406;2024-01-15T06:03:50;9.80;54.10
75517;DHT22;64097;52.548;13.406;2024-01-15T06:06:16;9.80;54.40
75517;DHT22;64097;52.548;13.406;2024-01-15T06:08:42;9.80;54.50
75517;DHT22;64097;52.548;13.406;2024-01-15T06:11:07;9.80;54.60
75517;DHT22;64097;52.548;13.406;2024-01-15T06:13:33;9.80;54.70
75517;DHT22;64097;52.548;13.406;2024-01-15T06:15:59;9.80;54.80
75517;DHT22;64097;52.548;13.406;2024-01-15T06:18:25;9.80;54.80
75517;DHT22;64097;52.548;13.406;2024-01-15T06:20:50;9.80;54.70
75517;DHT22;64097;52.548;13.406;2024-01-15T06:23:16;9.80;54.70
75517;DHT22;64097;52.548;13.406;2024-01-15T06:25:42;9.80;54.70
75517;DHT22;64097;52.548;13.406;2024-01-15T06:28:07;9.90;54.70
75517;DHT22;64097;52.548;13.406;2024-01-15T06:30:33;9.90;54.50
75517;DHT22;64097;52.548;13.406;2024-01-15T06:32:59;9.90;54.40
75517;DHT22;64097;52.548;13.406;2024-01-15T06:35:25;9.90;54.30
75517;DHT22;64097;52.548;13.406;2024-01-15T06:37:50;9.90;55.10
75517;DHT22;64097;52.548;13.406;2024-01-15T06:40:16;9.90;54.40
75517;DHT22;64097;52.548;13.406;2024-01-15T06:42:41;9.90;54.50
75517;DHT22;64097;52.548;13.406;2024-01-15T06:45:08;9.80;54.40
75517;DHT22;64097;52.548;13.406;2024-01-15T06:47:33;9.90;54.60
75517;DHT22;64097;52.548;13.406;2024-01-15T06:49:59;9.90;54.70
75517;DHT22;64097;52.548;13.406;2024-01-15T06:52:26;9.90;54.60
75517;DHT22;64097;52.548;13.406;2024-01-15T06:54:52;9.90;54.50
75517;DHT22;64097;52.548;13.406;2024-01-15T06:57:17;9.90;54.60
75517;DHT22;64097;52.548;13.406;2024-01-15T06:59:45;9.90;54.60
75517;DHT22;64097;52.548;13.406;2024-01-15T07:02:11;9.90;54.60
75517;DHT22;64097;52.548;13.406;2024-01-15T07:04:37;9.90;54.70
75517;DHT22;64097;52.548;13.406;2024-01-15T07:07:04;9.90;55.40
75517;DHT22;64097;52.548;13.406;2024-01-15T07:09:30;9.90;54.60
75517;DHT22;64097;52.548;13.406;2024-01-15T07:11:55;9.90;54.60
75517;DHT22;64097;52.548;13.406;2024-01-15T07:14:23;9.90;54.60
75517;DHT22;64097;52.548;13.406;2024-01-15T07:16:48;9.90;54.50
75517;DHT22;64097;52.548;13.406;2024-01-15T07:19:14;9.90;54.50
75517;DHT22;64097;52.548;13.406;2024-01-15T07:21:40;9.90;54.50
75517;DHT22;64097;52.548;13.406;2024-01-15T07:24:08;10.00;54.60
75517;DHT22;64097;52.548;13.406;2024-01-15T07:26:35;10.00;54.40
75517;DHT22;64097;52.548;13.406;2024-01-15T07:29:00;10.00;54.90
75517;DHT22;64097;52.548;13.406;2024-01-15T07:31:27;9.90;54.00
75517;DHT22;64097;52.548;13.406;2024-01-15T07:33:52;9.90;54.10
75517;DHT22;64097;52.548;13.406;2024-01-15T07:36:20;9.90;54.10
75517;DHT22;64097;52.548;13.406;2024-01-15T07:38:46;10.00;54.10
75517;DHT22;64097;52.548;13.406;2024-01-15T07:41:13;10.00;54.00
75517;DHT22;64097;52.548;13.406;2024-01-15T07:43:39;10.00;54.10
75517;DHT22;64097;52.548;13.406;2024-01-15T07:46:05;10.00;54.00
75517;DHT22;64097;52.548;13.406;2024-01-15T07:48:30;10.00;53.90
75517;DHT22;64097;52.548;13.406;2024-01-15T07:50:56;10.00;53.90
75517;DHT22;64097;52.548;13.406;2024-01-15T07:53:22;10.00;53.90
75517;DHT22;64097;52.548;13.406;2024-01-15T07:55:47;10.00;53.80
75517;DHT22;64097;52.548;13.406;2024-01-15T07:58:13;10.00;53.80
75517;DHT22;64097;52.548;13.406;2024-01-15T08:00:39;10.00;53.90
75517;DHT22;64097;52.548;13.406;2024-01-15T08:03:05;10.00;53.90
75517;DHT22;64097;52.548;13.406;2024-01-15T08:05:31;10.00;53.90
75517;DHT22;64097;52.548;13.406;2024-01-15T08:07:58;10.10;53.80
75517;DHT22;64097;52.548;13.406;2024-01-15T08:10:23;10.00;53.80
75517;DHT22;64097;52.548;13.406;2024-01-15T08:12:49;10.00;53.80
75517;DHT22;64097;52.548;13.406;2024-01-15T08:15:15;10.10;53.80
75517;DHT22;64097;52.548;13.406;2024-01-15T08:17:40;10.10;53.90
75517;DHT22;64097;52.548;13.406;2024-01-15T08:20:06;10.10;53.80
75517;DHT22;64097;52.548;13.406;2024-01-15T08:22:32;10.10;53.70
75517;DHT22;64097;52.548;13.406;2024-01-15T08:24:58;10.10;53.70
75517;DHT22;64097;52.548;13.406;2024-01-15T08:27:24;10.10;53.80
75517;DHT22;64097;52.548;13.406;2024-01-15T08:29:49;10.10;53.90
75517;DHT22;64097;52.548;13.406;2024-01-15T08:32:15;10.10;53.70
75517;DHT22;64097;52.548;13.406;2024-01-15T08:34:41;10.20;53.80
75517;DHT22;64097;52.548;13.406;2024-01-15T08:37:11;10.20;53.70
75517;DHT22;64097;52.548;13.406;2024-01-15T08:39:37;10.20;53.70
75517;DHT22;64097;52.548;13.406;2024-01-15T08:42:05;10.20;53.70
75517;DHT22;64097;52.548;13.406;2024-01-15T08:44:30;10.20;53.70
75517;DHT22;64097;52.548;13.406;2024-01-15T08:46:56;10.20;53.70
75517;DHT22;64097;52.548;13.406;2024-01-15T08:49:22;10.20;53.70
75517;DHT22;64097;52.548;13.406;2024-01-15T08:51:47;10.20;53.70
75517;DHT22;64097;52.548;13.406;2024-01-15T08:54:13;10.20;53.70
75517;DHT22;64097;52.548;13.406;2024-01-15T08:56:39;10.20;53.70
75517;DHT22;64097;52.548;13.406;2024-01-15T08:59:05;10.30;53.80
75517;DHT22;64097;52.548;13.406;2024-01-15T09:01:32;10.30;53.80
75517;DHT22;64097;52.548;13.406;2024-01-15T09:03:57;10.30;53.60
75517;DHT22;64097;52.548;13.406;2024-01-15T09:06:23;10.30;53.50
75517;DHT22;64097;52.548;13.406;2024-01-15T09:08:49;10.40;53.50
75517;DHT22;64097;52.548;13.406;2024-01-15T09:11:15;10.40;53.30
75517;DHT22;64097;52.548;13.406;2024-01-15T09:13:40;10.40;53.30
75517;DHT22;64097;52.548;13.406;2024-01-15T09:16:07;10.40;53.20
75517;DHT22;64097;52.548;13.406;2024-01-15T09:18:32;10.30;53.30
75517;DHT22;64097;52.548;13.406;2024-01-15T09:20:59;10.40;53.40
75517;DHT22;64097;52.548;13.406;2024-01-15T09:23:25;10.40;53.40
75517;DHT22;64097;52.548;13.406;2024-01-15T09:25:51;10.30;53.40
75517;DHT22;64097;52.548;13.406;2024-01-15T09:28:18;10.30;53.50
75517;DHT22;64097;52.548;13.406;2024-01-15T09:30:45;10.40;53.50
75517;DHT22;64097;52.548;13.406;2024-01-15T09:33:10;10.40;53.50
75517;DHT22;64097;52.548;13.406;2024-01-15T09:35:36;10.40;53.30
75517;DHT22;64097;52.548;13.406;2024-01-15T09:38:02;10.40;53.40
75517;DHT22;64097;52.548;13.406;2024-01-15T09:40:31;10.40;53.50
75517;DHT22;64097;52.548;13.406;2024-01-15T09:42:58;10.40;53.50
75517;DHT22;64097;52.548;13.406;2024-01-15T09:45:25;10.40;53.50
75517;DHT22;64097;52.548;13.406;2024-01-15T09:47:51;10.40;53.30
75517;DHT22;64097;52.548;13.406;2024-01-15T09:50:17;10.50;53.40
75517;DHT22;64097;52.548;13.406;2024-01-15T09:52:44;10.50;53.30
75517;DHT22;64097;52.548;13.406;2024-01-15T09:55:11;10.50;53.20
75517;DHT22;64097;52.548;13.406;2024-01-15T09:57:39;10.60;53.20
75517;DHT22;64097;52.548;13.406;2024-01-15T10:00:05;10.60;53.20
75517;DHT22;64097;52.548;13.406;2024-01-15T10:02:32;10.60;53.20
75517;DHT22;64097;52.548;13.406;2024-01-15T10:04:58;10.70;53.10
75517;DHT22;64097;52.548;13.406;2024-01-15T10:07:25;10.60;53.00
75517;DHT22;64097;52.548;13.406;2024-01-15T10:09:51;10.60;53.10
75517;DHT22;64097;52.548;13.406;2024-01-15T10:12:17;10.70;53.00
75517;DHT22;64097;52.548;13.406;2024-01-15T10:14:43;10.70;53.00
75517;DHT22;64097;52.548;13.406;2024-01-15T10:17:12;10.70;52.90
75517;DHT22;64097;52.548;13.406;2024-01-15T10:19:39;10.70;53.00
75517;DHT22;64097;52.548;13.406;2024-01-15T10:22:08;10.70;53.00
75517;DHT22;64097;52.548;13.406;2024-01-15T10:24:39;10.70;52.90
75517;DHT22;64097;52.548;13.406;2024-01-15T10:27:09;10.70;52.80
75517;DHT22;64097;52.548;13.406;2024-01-15T10:29:36;10.70;52.90
75517;DHT22;64097;52.548;13.406;2024-01-15T10:32:05;10.80;52.80
75517;DHT22;64097;52.548;13.406;2024-01-15T10:34:31;10.80;52.80
75517;DHT22;64097;52.548;13.406;2024-01-15T10:36:57;10.80;52.70
75517;DHT22;64097;52.548;13.406;2024-01-15T10:39:23;10.80;52.50
75517;DHT22;64097;52.548;13.406;2024-01-15T10:41:49;10.80;52.40
75517;DHT22;64097;52.548;13.406;2024-01-15T10:44:17;10.80;52.30
75517;DHT22;64097;52.548;13.406;2024-01-15T10:46:43;10.80;52.20
75517;DHT22;64097;52.548;13.406;2024-01-15T10:49:11;10.80;52.10
75517;DHT22;64097;52.548;13.406;2024-01-15T10:51:38;10.80;52.20
75517;DHT22;64097;52.548;13.406;2024-01-15T10:54:05;10.80;52.00
75517;DHT22;64097;52.548;13.406;2024-01-15T10:56:35;10.80;52.20
75517;DHT22;64097;52.548;13.406;2024-01-15T10:59:02;10.80;52.20
75517;DHT22;64097;52.548;13.406;2024-01-15T11:01:30;10.80;52.30
75517;DHT22;64097;52.548;13.406;2024-01-15T11:03:55;10.80;52.30
75517;DHT22;64097;52.548;13.406;2024-01-15T11:06:24;10.90;52.30
75517;DHT22;64097;52.548;13.406;2024-01-15T11:08:51;10.90;52.40
75517;DHT22;64097;52.548;13.406;2024-01-15T11:11:18;10.90;52.30
75517;DHT22;64097;52.548;13.406;2024-01-15T11:13:46;10.90;52.10
75517;DHT22;64097;52.548;13.406;2024-01-15T11:16:14;10.90;52.10
75517;DHT22;64097;52.548;13.406;2024-01-15T11:21:22;11.00;51.80
75517;DHT22;64097;52.548;13.406;2024-01-15T11:26:43;10.90;51.80
75517;DHT22;64097;52.548;13.406;2024-01-15T11:32:04;11.00;51.90
75517;DHT22;64097;52.548;13.406;2024-01-15T11:37:18;11.00;52.10
75517;DHT22;64097;52.548;13.406;2024-01-15T11:39:44;11.00;52.20
75517;DHT22;64097;52.548;13.406;2024-01-15T11:42:10;11.00;52.30
75517;DHT22;64097;52.548;13.406;2024-01-15T11:44:38;11.10;52.30
75517;DHT22;64097;52.548;13.406;2024-01-15T11:47:06;11.10;52.30
75517;DHT22;64097;52.548;13.406;2024-01-15T11:50:02;11.10;52.30
75517;DHT22;64097;52.548;13.406;2024-01-15T11:52:34;11.10;52.90
75517;DHT22;64097;52.548;13.406;2024-01-15T11:55:18;11.10;52.40
75517;DHT22;64097;52.548;13.406;2024-01-15T11:57:53;11.10;52.70
75517;DHT22;64097;52.548;13.406;2024-01-15T12:00:23;11.00;53.00
75517;DHT22;64097;52.548;13.406;2024-01-15T12:02:49;11.00;53.30
75517;DHT22;64097;52.548;13.406;2024-01-15T12:05:17;10.90;53.50
75517;DHT22;64097;52.548;13.406;2024-01-15T12:07:48;10.90;53.80
75517;DHT22;64097;52.548;13.406;2024-01-15T12:10:18;10.90;54.20
75517;DHT22;64097;52.548;13.406;2024-01-15T12:13:05;10.80;54.20
75517;DHT22;64097;52.548;13.406;2024-01-15T12:15:35;10.80;54.30
75517;DHT22;64097;52.548;13.406;2024-01-15T12:18:02;10.80;54.50
75517;DHT22;64097;52.548;13.406;2024-01-15T12:20:29;10.80;54.50
75517;DHT22;64097;52.548;13.406;2024-01-15T12:22:56;10.70;54.40
75517;DHT22;64097;52.548;13.406;2024-01-15T12:25:22;10.70;54.40
75517;DHT22;64097;52.548;13.406;2024-01-15T12:27:48;10.70;54.50
75517;DHT22;64097;52.548;13.406;2024-01-15T12:30:14;10.70;54.50
75517;DHT22;64097;52.548;13.406;2024-01-15T12:32:44;10.70;54.40
75517;DHT22;64097;52.548;13.406;2024-01-15T12:35:13;10.70;54.40
75517;DHT22;64097;52.548;13.406;2024-01-15T12:37:40;10.70;54.50
75517;DHT22;64097;52.548;13.406;2024-01-15T12:40:07;10.70;54.60
75517;DHT22;64097;52.548;13.406;2024-01-15T12:42:40;10.70;54.60
75517;DHT22;64097;52.548;13.406;2024-01-15T12:45:06;10.70;54.60
75517;DHT22;64097;52.548;13.406;2024-01-15T12:47:32;10.60;54.70
75517;DHT22;64097;52.548;13.406;2024-01-15T12:49:58;10.60;54.80
75517;DHT22;64097;52.548;13.406;2024-01-15T12:52:28;10.60;54.90
75517;DHT22;64097;52.548;13.406;2024-01-15T12:54:54;10.60;55.00
75517;DHT22;64097;52.548;13.406;2024-01-15T12:57:20;10.50;55.10
75517;DHT22;64097;52.548;13.406;2024-01-15T12:59:46;10.50;55.10
75517;DHT22;64097;52.548;13.406;2024-01-15T13:02:12;10.50;55.20
75517;DHT22;64097;52.548;13.406;2024-01-15T13:04:39;10.50;55.30
75517;DHT22;64097;52.548;13.406;2024-01-15T13:07:06;10.50;55.30
75517;DHT22;64097;52.548;13.406;2024-01-15T13:09:32;10.50;55.30
75517;DHT22;64097;52.548;13.406;2024-01-15T13:11:58;10.60;55.30
75517;DHT22;64097;52.548;13.406;2024-01-15T13:14:24;10.60;55.20
75517;DHT22;64097;52.548;13.406;2024-01-15T13:16:50;10.60;55.10
75517;DHT22;64097;52.548;13.406;2024-01-15T13:19:16;10.60;55.10
75517;DHT22;64097;52.548;13.406;2024-01-15T13:21:42;10.60;55.10
75517;DHT22;64097;52.548;13.406;2024-01-15T13:24:08;10.60;55.00
75517;DHT22;64097;52.548;13.406;2024-01-15T13:26:34;10.60;54.90
75517;DHT22;64097;52.548;13.406;2024-01-15T13:29:01;10.60;54.90
75517;DHT22;64097;52.548;13.406;2024-01-15T13:31:29;10.60;55.30
75517;DHT22;64097;52.548;13.406;2024-01-15T13:33:55;10.60;54.80
75517;DHT22;64097;52.548;13.406;2024-01-15T13:36:21;10.60;54.60
75517;DHT22;64097;52.548;13.406;2024-01-15T13:38:49;10.60;54.60
75517;DHT22;64097;52.548;13.406;2024-01-15T13:41:15;10.60;54.60
75517;DHT22;64097;52.548;13.406;2024-01-15T13:43:41;10.60;54.60
75517;DHT22;64097;52.548;13.406;2024-01-15T13:46:06;10.60;54.60
75517;DHT22;64097;52.548;13.406;2024-01-15T13:48:32;10.60;54.70
75517;DHT22;64097;52.548;13.406;2024-01-15T13:51:01;10.60;54.80
75517;DHT22;64097;52.548;13.406;2024-01-15T13:53:27;10.60;54.90
75517;DHT22;64097;52.548;13.406;2024-01-15T13:55:53;10.60;54.90
75517;DHT22;64097;52.548;13.406;2024-01-15T13:58:18;10.60;54.80
